Allentown, New York
Current Conditions -  °F | °C
As of 1:56 PM on Friday 31 Oct 2014 (Local Time) from KELZ Reporting Station
Light Rain Light Rain  
Wind Chill: 40°   Ceiling: 3600
Heat Index: 43°   Visibility: 10mi
Dew Point: 34°   Wind: 5mph
Humidity: 71%   Direction: NA
Pressure: 29.9"   Gusts: NA
Location:  42.08°N, 78.06°W
Report Text: KELZ 311756Z AUTO VRB04KT 10SM -RA SCT022 BKN036 OVC044 06/01 A2990 RMK AO2 RAB13 SLP138 P0000 60000 T00610011 10061 20022 58014
Loading
Personal Weather Stations






























Interactive Weather Map
Tropical Storm Tracking
New forecast layout! Learn more

10-Day Weather Forecast

Advertisements
Track Severe Weather on mobile